createdAt,value
2022-09-12T00:04:10.203Z,7.77
2022-09-12T00:09:13.340Z,7.97
2022-09-12T00:14:16.823Z,8.03
2022-09-12T00:19:18.342Z,7.70
2022-09-12T00:24:19.558Z,9.27
2022-09-12T00:29:21.978Z,9.13
2022-09-12T00:34:23.365Z,9.90
2022-09-12T00:39:24.654Z,9.10
2022-09-12T00:44:25.821Z,9.63
2022-09-12T00:49:56.986Z,9.80
2022-09-12T00:55:11.502Z,9.70
2022-09-12T01:00:16.058Z,9.90
2022-09-12T01:05:17.448Z,9.80
2022-09-12T01:10:19.393Z,9.63
2022-09-12T01:15:20.662Z,10.30
2022-09-12T01:20:40.723Z,9.83
2022-09-12T01:25:48.360Z,9.67
2022-09-12T01:31:00.191Z,10.57
2022-09-12T01:36:20.390Z,9.07
2022-09-12T01:42:05.750Z,10.30
2022-09-12T01:47:09.835Z,10.00
2022-09-12T01:52:28.370Z,10.03
2022-09-12T01:57:35.835Z,11.50
2022-09-12T02:02:41.354Z,11.37
2022-09-12T02:07:46.719Z,11.23
2022-09-12T02:13:03.326Z,10.63
2022-09-12T02:18:05.966Z,10.57
2022-09-12T02:23:13.778Z,9.27
2022-09-12T02:28:20.978Z,10.23
2022-09-12T02:33:47.721Z,10.13
2022-09-12T02:38:49.570Z,11.13
2022-09-12T02:43:51.914Z,11.43
2022-09-12T02:48:53.669Z,10.83
2022-09-12T02:53:56.308Z,10.73
2022-09-12T02:59:04.847Z,11.50
2022-09-12T03:04:20.460Z,10.43
2022-09-12T03:09:40.605Z,10.97
2022-09-12T03:15:02.526Z,11.33
2022-09-12T03:20:26.877Z,11.80
2022-09-12T03:25:35.423Z,12.87
2022-09-12T03:30:41.908Z,12.90
2022-09-12T03:35:45.065Z,12.23
2022-09-12T03:40:46.169Z,12.70
2022-09-12T03:45:51.561Z,12.47
2022-09-12T03:50:52.834Z,14.40
2022-09-12T03:55:54.077Z,14.67
2022-09-12T04:00:55.189Z,13.30
2022-09-12T04:05:57.106Z,13.93
2022-09-12T04:11:03.458Z,14.33
2022-09-12T04:16:05.522Z,14.80
2022-09-12T04:21:10.495Z,14.47
2022-09-12T04:26:12.994Z,14.20
2022-09-12T04:31:21.877Z,13.17
2022-09-12T04:36:24.810Z,15.53
2022-09-12T04:41:30.001Z,14.37
2022-09-12T04:46:34.417Z,14.30
2022-09-12T04:51:37.571Z,15.53
2022-09-12T04:56:41.512Z,15.43
2022-09-12T05:01:43.105Z,14.80
2022-09-12T05:06:46.582Z,16.30
2022-09-12T05:12:03.867Z,14.87
2022-09-12T05:17:05.561Z,15.30
2022-09-12T05:22:06.878Z,14.77
2022-09-12T05:27:08.815Z,18.03
2022-09-12T05:32:11.716Z,17.23
2022-09-12T05:37:12.759Z,18.63
2022-09-12T05:42:14.297Z,19.93
2022-09-12T05:47:16.594Z,24.13
2022-09-12T05:52:17.875Z,23.43
2022-09-12T05:57:18.946Z,21.77
2022-09-12T06:02:20.226Z,21.27
2022-09-12T06:07:21.941Z,22.03
2022-09-12T06:12:22.997Z,21.87
2022-09-12T06:17:24.316Z,22.57
2022-09-12T06:22:25.344Z,22.47
2022-09-12T06:27:26.413Z,22.40
2022-09-12T06:32:30.065Z,21.57
2022-09-12T06:37:31.989Z,18.90
2022-09-12T06:42:33.052Z,16.95
2022-09-12T06:47:34.499Z,15.07
2022-09-12T06:52:35.737Z,13.27
2022-09-12T06:57:38.142Z,13.45
2022-09-12T07:02:39.264Z,11.43
2022-09-12T07:07:40.821Z,10.52
2022-09-12T07:12:41.946Z,10.85
2022-09-12T07:17:42.986Z,9.88
2022-09-12T07:22:44.476Z,10.77
2022-09-12T07:27:50.619Z,10.27
2022-09-12T07:32:53.423Z,9.20
2022-09-12T07:37:55.515Z,9.10
2022-09-12T07:42:58.098Z,7.80
2022-09-12T07:47:59.441Z,7.00
2022-09-12T07:53:02.398Z,7.50
2022-09-12T07:58:03.812Z,5.88
2022-09-12T08:03:06.561Z,4.75
2022-09-12T08:08:09.126Z,5.13
2022-09-12T08:13:10.870Z,4.20
2022-09-12T08:18:12.297Z,4.50
2022-09-12T08:23:13.546Z,4.32
2022-09-12T08:28:14.772Z,3.35
2022-09-12T08:33:16.098Z,4.20
2022-09-12T08:38:18.922Z,3.15
2022-09-12T08:43:22.997Z,2.55
2022-09-12T08:48:24.137Z,2.53
2022-09-12T08:53:27.002Z,2.90
2022-09-12T08:58:28.838Z,2.90
2022-09-12T09:04:14.337Z,2.25
2022-09-12T09:09:50.261Z,2.35
2022-09-12T09:15:00.730Z,2.38
2022-09-12T09:20:22.034Z,2.10
2022-09-12T09:25:28.649Z,1.70
2022-09-12T09:30:30.747Z,2.55
2022-09-12T09:35:44.762Z,1.90
2022-09-12T09:41:02.568Z,1.80
2022-09-12T09:46:04.551Z,2.03
2022-09-12T09:51:08.480Z,2.00
2022-09-12T09:56:28.442Z,1.90
2022-09-12T10:01:29.706Z,1.73
2022-09-12T10:06:37.241Z,2.13
2022-09-12T10:11:41.513Z,1.40
2022-09-12T10:16:54.086Z,1.70
2022-09-12T10:21:55.877Z,1.77
2022-09-12T10:27:08.153Z,1.60
2022-09-12T10:32:11.891Z,1.67
2022-09-12T10:37:28.070Z,1.80
2022-09-12T10:42:47.925Z,1.70
2022-09-12T10:47:49.317Z,1.42
2022-09-12T10:52:50.599Z,1.13
2022-09-12T10:58:15.998Z,1.52
2022-09-12T11:03:38.955Z,1.67
2022-09-12T11:09:08.125Z,1.55
2022-09-12T11:14:19.221Z,1.80
2022-09-12T11:19:50.226Z,1.77
2022-09-12T11:25:09.758Z,1.40
2022-09-12T11:30:15.206Z,1.50
2022-09-12T11:35:28.754Z,1.40
2022-09-12T11:40:56.180Z,1.40
2022-09-12T11:46:06.238Z,1.23
2022-09-12T11:51:17.487Z,1.30
2022-09-12T11:56:18.866Z,1.50
2022-09-12T12:01:25.530Z,1.70
2022-09-12T12:06:32.702Z,1.45
2022-09-12T12:11:39.549Z,1.45
2022-09-12T12:16:41.398Z,1.15
2022-09-12T12:21:43.609Z,1.60
2022-09-12T12:27:00.017Z,1.20
2022-09-12T12:32:03.997Z,1.50
2022-09-12T12:37:20.484Z,1.55
2022-09-12T12:42:34.135Z,1.45
2022-09-12T12:47:35.155Z,1.58
2022-09-12T12:53:03.813Z,1.50
2022-09-12T12:58:08.006Z,1.42
2022-09-12T13:03:25.393Z,1.42
2022-09-12T13:08:32.785Z,1.40
2022-09-12T13:13:36.524Z,1.50
2022-09-12T13:18:45.639Z,1.70
2022-09-12T13:24:15.167Z,1.73
2022-09-12T13:29:18.873Z,1.15
2022-09-12T13:34:27.756Z,1.13
2022-09-12T13:39:36.910Z,1.45
2022-09-12T13:44:50.026Z,1.48
2022-09-12T13:49:52.278Z,1.70
2022-09-12T13:54:57.486Z,1.20
2022-09-12T14:00:00.670Z,1.58
2022-09-12T14:05:19.044Z,1.60
2022-09-12T14:10:28.111Z,1.95
2022-09-12T14:15:31.849Z,1.55
2022-09-12T14:20:36.634Z,1.60
2022-09-12T14:25:40.658Z,2.03
2022-09-12T14:31:06.839Z,1.85
2022-09-12T14:36:34.614Z,1.50
2022-09-12T14:41:39.565Z,1.65
2022-09-12T14:46:42.693Z,1.35
2022-09-12T14:51:56.554Z,1.55
2022-09-12T14:57:03.522Z,1.50
2022-09-12T15:02:31.115Z,1.50
2022-09-12T15:07:59.485Z,1.98
2022-09-12T15:13:13.607Z,1.85
2022-09-12T15:18:15.526Z,2.00
2022-09-12T15:23:43.673Z,1.45
2022-09-12T15:28:45.505Z,1.40
2022-09-12T15:33:46.813Z,1.25
2022-09-12T15:38:48.722Z,1.20
2022-09-12T15:43:50.245Z,1.27
2022-09-12T15:48:51.658Z,1.40
2022-09-12T15:53:53.017Z,1.20
2022-09-12T15:58:59.079Z,1.23
2022-09-12T16:04:02.469Z,0.88
2022-09-12T16:09:03.596Z,0.90
2022-09-12T16:14:05.269Z,1.15
2022-09-12T16:19:07.396Z,1.08
2022-09-12T16:24:08.637Z,1.00
2022-09-12T16:29:12.534Z,1.02
2022-09-12T16:34:13.694Z,1.02
2022-09-12T16:39:14.817Z,0.90
2022-09-12T16:44:15.954Z,1.27
2022-09-12T16:49:17.082Z,0.93
2022-09-12T16:54:18.421Z,1.10
2022-09-12T16:59:19.711Z,1.13
2022-09-12T17:04:23.546Z,1.08
2022-09-12T17:09:27.339Z,0.90
2022-09-12T17:14:28.557Z,1.42
2022-09-12T17:19:29.719Z,1.17
2022-09-12T17:24:32.253Z,1.30
2022-09-12T17:29:35.102Z,1.23
2022-09-12T17:34:36.374Z,1.13
2022-09-12T17:39:37.556Z,1.05
2022-09-12T17:44:38.766Z,1.00
2022-09-12T17:49:39.907Z,1.42
2022-09-12T17:54:41.938Z,1.35
2022-09-12T17:59:42.963Z,2.10
2022-09-12T18:04:45.498Z,1.73
2022-09-12T18:09:47.090Z,1.73
2022-09-12T18:14:48.364Z,2.00
2022-09-12T18:19:53.674Z,1.35
2022-09-12T18:24:54.943Z,1.50
2022-09-12T18:30:17.517Z,1.33
2022-09-12T18:35:17.310Z,1.35
2022-09-12T18:40:18.510Z,1.40
2022-09-12T18:45:19.638Z,1.15
2022-09-12T18:50:22.403Z,1.25
2022-09-12T18:55:23.771Z,1.40
2022-09-12T19:00:25.177Z,1.70
2022-09-12T19:05:27.474Z,1.58
2022-09-12T19:10:28.867Z,1.80
2022-09-12T19:15:30.020Z,2.30
2022-09-12T19:20:34.385Z,2.00
2022-09-12T19:25:35.839Z,2.10
2022-09-12T19:30:37.431Z,2.10
2022-09-12T19:35:40.116Z,2.00
2022-09-12T19:40:41.895Z,2.40
2022-09-12T19:45:46.953Z,2.10
2022-09-12T19:50:48.717Z,2.58
2022-09-12T19:55:49.852Z,2.22
2022-09-12T20:00:50.946Z,2.15
2022-09-12T20:05:52.190Z,2.30
2022-09-12T20:10:57.203Z,2.42
2022-09-12T20:16:21.986Z,2.35
2022-09-12T20:21:30.327Z,2.30
2022-09-12T20:26:32.247Z,2.22
2022-09-12T20:31:34.968Z,2.20
2022-09-12T20:36:36.288Z,2.47
2022-09-12T20:41:37.377Z,2.13
2022-09-12T20:46:39.380Z,2.15
2022-09-12T20:51:40.469Z,2.17
2022-09-12T20:56:42.065Z,2.20
2022-09-12T21:01:43.410Z,2.40
2022-09-12T21:06:44.606Z,2.83
2022-09-12T21:11:45.726Z,2.42
2022-09-12T21:16:46.841Z,2.60
2022-09-12T21:21:47.951Z,2.40
2022-09-12T21:26:49.008Z,2.60
2022-09-12T21:31:50.782Z,2.72
2022-09-12T21:36:52.159Z,2.60
2022-09-12T21:41:53.368Z,2.50
2022-09-12T21:46:54.460Z,2.22
2022-09-12T21:51:55.723Z,2.72
2022-09-12T21:56:56.978Z,2.38
2022-09-12T22:01:58.110Z,3.42
2022-09-12T22:07:01.372Z,2.83
2022-09-12T22:12:02.841Z,2.88
2022-09-12T22:17:04.768Z,2.72
2022-09-12T22:22:25.543Z,2.90
2022-09-12T22:27:26.574Z,2.50
2022-09-12T22:32:27.787Z,2.50
2022-09-12T22:37:29.225Z,2.60
2022-09-12T22:42:30.590Z,3.22
2022-09-12T22:47:31.654Z,3.10
2022-09-12T22:52:32.874Z,2.80
2022-09-12T22:57:34.078Z,2.63
2022-09-12T23:02:35.376Z,2.97
2022-09-12T23:07:36.444Z,2.35
2022-09-12T23:12:37.475Z,2.80
2022-09-12T23:17:39.387Z,3.70
2022-09-12T23:22:40.673Z,2.70
2022-09-12T23:27:42.555Z,2.00
2022-09-12T23:32:44.042Z,2.50
2022-09-12T23:37:46.112Z,3.47
2022-09-12T23:42:47.291Z,2.35
2022-09-12T23:47:48.491Z,2.35
2022-09-12T23:52:49.562Z,2.47
2022-09-12T23:57:50.838Z,1.70
